Accueil
METAR-TAF:

METAR-TAF

Aéroports :

Sabadell, Espagne

latitude: 41-31N, longitude: 002-06E, altitude: 250 m

Observation

Le bulletin a été fait il y a 38 minutes, à 15:00 UTC
Vent 9 kt de ouest, variant entre sud-ouest et nord-ouest
Température 15°C
Humidité 41%
Pression 1007 hPa
Visibilité 10 km ou plus
Quelques nuages à une hauteur de 2000 ft

METAR: LELL 241500Z 28009KT 230V320 9999 FEW020 15/02 Q1007

Heure: 16:38 (15:38 UTC)

Prévision

Le bulletin a été fait il y a 1 heure et 38 minutes, à 14:00 UTC
Prévision valable du 24 à 15 UTC au 25 à 15 UTC
Vent 12 kt de ouest/nord-ouest
Visibilité 10 km ou plus
Quelques nuages à une hauteur de 4000 ft
Temporairement
du 24 à 15 UTC au 24 à 24 UTC
Vent 8 kt de sud-ouest

TAF: LELL 241400Z 2415/2515 29012KT 9999 FEW040 TX15/2513Z TN07/2506Z TEMPO 2415/2424 23008KT

Observations et prévisions météorologiques de plus de 4000 aéroports (messages METAR et TAF).

Les stations disponibles sont représentées par des disques jaunes et rouges sur la carte.

Passer la souris dessus pour voir le nom de la station.

Cliquer dessus pour voir les observations et prévisions météorologiques.

Pour changer de carte: cliquez sur les boutons verts avec une croix noire pour zoomer, sur le bouton vert avec un tiret pour effectuer un zoom arrière, ou sur les flèches vertes pour les cartes adjacentes.


METAR-TAF: